sensor_id;sensor_type;location;lat;lon;timestamp;P1;durP1;ratioP1;P2;durP2;ratioP2
56657;SDS011;42530;52.240;19.354;2022-11-11T00:00:27;48.05;;;40.92;;
56657;SDS011;42530;52.240;19.354;2022-11-11T00:02:56;42.42;;;38.10;;
56657;SDS011;42530;52.240;19.354;2022-11-11T00:05:23;44.75;;;40.00;;
56657;SDS011;42530;52.240;19.354;2022-11-11T00:07:52;44.15;;;39.50;;
56657;SDS011;42530;52.240;19.354;2022-11-11T00:10:23;46.08;;;40.10;;
56657;SDS011;42530;52.240;19.354;2022-11-11T00:12:52;44.00;;;39.33;;
56657;SDS011;42530;52.240;19.354;2022-11-11T00:15:18;40.50;;;36.38;;
56657;SDS011;42530;52.240;19.354;2022-11-11T00:17:43;51.47;;;41.22;;
56657;SDS011;42530;52.240;19.354;2022-11-11T00:20:28;44.72;;;39.50;;
56657;SDS011;42530;52.240;19.354;2022-11-11T00:23:21;41.22;;;36.95;;
56657;SDS011;42530;52.240;19.354;2022-11-11T00:26:06;44.17;;;38.92;;
56657;SDS011;42530;52.240;19.354;2022-11-11T00:28:33;44.60;;;38.45;;
56657;SDS011;42530;52.240;19.354;2022-11-11T00:31:12;41.67;;;36.85;;
56657;SDS011;42530;52.240;19.354;2022-11-11T00:33:38;40.00;;;34.10;;
56657;SDS011;42530;52.240;19.354;2022-11-11T00:36:04;41.63;;;31.08;;
56657;SDS011;42530;52.240;19.354;2022-11-11T00:38:30;40.50;;;34.17;;
56657;SDS011;42530;52.240;19.354;2022-11-11T00:41:12;42.17;;;35.28;;
56657;SDS011;42530;52.240;19.354;2022-11-11T00:43:40;38.97;;;34.90;;
56657;SDS011;42530;52.240;19.354;2022-11-11T00:46:06;37.97;;;33.60;;
56657;SDS011;42530;52.240;19.354;2022-11-11T00:48:50;38.88;;;34.75;;
56657;SDS011;42530;52.240;19.354;2022-11-11T00:51:33;41.63;;;32.47;;
56657;SDS011;42530;52.240;19.354;2022-11-11T00:53:59;38.70;;;34.88;;
56657;SDS011;42530;52.240;19.354;2022-11-11T00:56:24;38.22;;;32.95;;
56657;SDS011;42530;52.240;19.354;2022-11-11T00:58:51;39.08;;;35.10;;
56657;SDS011;42530;52.240;19.354;2022-11-11T01:01:17;43.25;;;39.00;;
56657;SDS011;42530;52.240;19.354;2022-11-11T01:03:43;38.67;;;34.20;;
56657;SDS011;42530;52.240;19.354;2022-11-11T01:06:09;37.08;;;33.05;;
56657;SDS011;42530;52.240;19.354;2022-11-11T01:08:35;37.58;;;31.90;;
56657;SDS011;42530;52.240;19.354;2022-11-11T01:11:01;39.75;;;35.50;;
56657;SDS011;42530;52.240;19.354;2022-11-11T01:13:28;37.30;;;33.40;;
56657;SDS011;42530;52.240;19.354;2022-11-11T01:16:06;35.03;;;30.13;;
56657;SDS011;42530;52.240;19.354;2022-11-11T01:18:34;34.88;;;31.25;;
56657;SDS011;42530;52.240;19.354;2022-11-11T01:21:04;34.22;;;30.38;;
56657;SDS011;42530;52.240;19.354;2022-11-11T01:23:32;36.97;;;33.03;;
56657;SDS011;42530;52.240;19.354;2022-11-11T01:26:01;37.65;;;32.33;;
56657;SDS011;42530;52.240;19.354;2022-11-11T01:28:30;39.63;;;32.50;;
56657;SDS011;42530;52.240;19.354;2022-11-11T01:31:00;32.25;;;29.02;;
56657;SDS011;42530;52.240;19.354;2022-11-11T01:33:27;36.13;;;31.00;;
56657;SDS011;42530;52.240;19.354;2022-11-11T01:35:52;32.78;;;29.13;;
56657;SDS011;42530;52.240;19.354;2022-11-11T01:38:18;37.67;;;30.25;;
56657;SDS011;42530;52.240;19.354;2022-11-11T01:40:44;31.48;;;28.20;;
56657;SDS011;42530;52.240;19.354;2022-11-11T01:48:25;34.70;;;30.98;;
56657;SDS011;42530;52.240;19.354;2022-11-11T01:51:21;33.70;;;27.80;;
56657;SDS011;42530;52.240;19.354;2022-11-11T01:54:00;34.28;;;27.70;;
56657;SDS011;42530;52.240;19.354;2022-11-11T01:56:30;31.42;;;28.15;;
56657;SDS011;42530;52.240;19.354;2022-11-11T01:59:00;30.25;;;26.58;;
56657;SDS011;42530;52.240;19.354;2022-11-11T02:01:29;31.23;;;26.38;;
56657;SDS011;42530;52.240;19.354;2022-11-11T02:03:54;32.25;;;28.83;;
56657;SDS011;42530;52.240;19.354;2022-11-11T02:06:41;34.60;;;26.88;;
56657;SDS011;42530;52.240;19.354;2022-11-11T02:09:06;32.83;;;29.42;;
56657;SDS011;42530;52.240;19.354;2022-11-11T02:11:33;38.35;;;31.13;;
56657;SDS011;42530;52.240;19.354;2022-11-11T02:14:19;33.13;;;28.33;;
56657;SDS011;42530;52.240;19.354;2022-11-11T02:17:01;27.25;;;24.27;;
56657;SDS011;42530;52.240;19.354;2022-11-11T02:20:02;37.20;;;27.08;;
56657;SDS011;42530;52.240;19.354;2022-11-11T02:25:16;32.08;;;28.70;;
56657;SDS011;42530;52.240;19.354;2022-11-11T02:27:46;33.17;;;26.60;;
56657;SDS011;42530;52.240;19.354;2022-11-11T02:30:15;31.20;;;26.42;;
56657;SDS011;42530;52.240;19.354;2022-11-11T02:32:42;31.55;;;27.02;;
56657;SDS011;42530;52.240;19.354;2022-11-11T02:35:13;28.50;;;25.40;;
56657;SDS011;42530;52.240;19.354;2022-11-11T02:37:41;29.02;;;24.42;;
56657;SDS011;42530;52.240;19.354;2022-11-11T02:40:11;36.55;;;26.52;;
56657;SDS011;42530;52.240;19.354;2022-11-11T02:42:38;31.08;;;23.90;;
56657;SDS011;42530;52.240;19.354;2022-11-11T02:45:04;33.10;;;25.10;;
56657;SDS011;42530;52.240;19.354;2022-11-11T02:47:30;28.55;;;24.10;;
56657;SDS011;42530;52.240;19.354;2022-11-11T02:49:55;28.30;;;25.52;;
56657;SDS011;42530;52.240;19.354;2022-11-11T02:52:20;30.90;;;26.58;;
56657;SDS011;42530;52.240;19.354;2022-11-11T02:54:46;27.17;;;24.08;;
56657;SDS011;42530;52.240;19.354;2022-11-11T02:57:13;34.17;;;25.17;;
56657;SDS011;42530;52.240;19.354;2022-11-11T02:59:39;29.48;;;24.60;;
56657;SDS011;42530;52.240;19.354;2022-11-11T03:02:05;26.55;;;23.58;;
56657;SDS011;42530;52.240;19.354;2022-11-11T03:04:32;26.88;;;23.83;;
56657;SDS011;42530;52.240;19.354;2022-11-11T03:06:58;29.25;;;23.63;;
56657;SDS011;42530;52.240;19.354;2022-11-11T03:09:24;26.85;;;24.10;;
56657;SDS011;42530;52.240;19.354;2022-11-11T03:11:50;24.48;;;20.20;;
56657;SDS011;42530;52.240;19.354;2022-11-11T03:14:15;24.58;;;22.00;;
56657;SDS011;42530;52.240;19.354;2022-11-11T03:16:41;26.25;;;23.85;;
56657;SDS011;42530;52.240;19.354;2022-11-11T03:19:25;26.73;;;23.92;;
56657;SDS011;42530;52.240;19.354;2022-11-11T03:21:50;29.15;;;24.77;;
56657;SDS011;42530;52.240;19.354;2022-11-11T03:24:16;26.10;;;22.08;;
56657;SDS011;42530;52.240;19.354;2022-11-11T03:26:41;27.40;;;24.48;;
56657;SDS011;42530;52.240;19.354;2022-11-11T03:29:07;25.88;;;22.63;;
56657;SDS011;42530;52.240;19.354;2022-11-11T03:31:32;23.67;;;21.38;;
56657;SDS011;42530;52.240;19.354;2022-11-11T03:33:58;27.75;;;21.13;;
56657;SDS011;42530;52.240;19.354;2022-11-11T03:36:42;23.40;;;20.77;;
56657;SDS011;42530;52.240;19.354;2022-11-11T03:39:28;22.60;;;20.30;;
56657;SDS011;42530;52.240;19.354;2022-11-11T03:41:54;27.55;;;21.42;;
56657;SDS011;42530;52.240;19.354;2022-11-11T03:44:21;25.42;;;21.52;;
56657;SDS011;42530;52.240;19.354;2022-11-11T03:46:46;23.92;;;21.38;;
56657;SDS011;42530;52.240;19.354;2022-11-11T03:49:12;23.20;;;19.92;;
56657;SDS011;42530;52.240;19.354;2022-11-11T03:51:37;28.60;;;20.13;;
56657;SDS011;42530;52.240;19.354;2022-11-11T03:54:03;22.67;;;20.27;;
56657;SDS011;42530;52.240;19.354;2022-11-11T03:56:28;24.70;;;21.98;;
56657;SDS011;42530;52.240;19.354;2022-11-11T03:58:54;23.80;;;20.80;;
56657;SDS011;42530;52.240;19.354;2022-11-11T04:01:19;23.15;;;20.63;;
56657;SDS011;42530;52.240;19.354;2022-11-11T04:04:03;31.42;;;22.45;;
56657;SDS011;42530;52.240;19.354;2022-11-11T04:06:47;29.25;;;23.23;;
56657;SDS011;42530;52.240;19.354;2022-11-11T04:09:31;28.75;;;23.20;;
56657;SDS011;42530;52.240;19.354;2022-11-11T04:12:15;21.65;;;19.55;;
56657;SDS011;42530;52.240;19.354;2022-11-11T04:14:41;27.85;;;21.20;;
56657;SDS011;42530;52.240;19.354;2022-11-11T04:17:25;22.58;;;20.30;;
56657;SDS011;42530;52.240;19.354;2022-11-11T04:19:50;22.17;;;19.58;;
56657;SDS011;42530;52.240;19.354;2022-11-11T04:22:43;23.67;;;19.90;;
56657;SDS011;42530;52.240;19.354;2022-11-11T04:25:09;23.55;;;20.27;;
56657;SDS011;42530;52.240;19.354;2022-11-11T04:27:56;25.73;;;20.60;;
56657;SDS011;42530;52.240;19.354;2022-11-11T04:30:40;24.83;;;19.95;;
56657;SDS011;42530;52.240;19.354;2022-11-11T04:33:06;21.42;;;19.23;;
56657;SDS011;42530;52.240;19.354;2022-11-11T04:35:31;26.30;;;20.65;;
56657;SDS011;42530;52.240;19.354;2022-11-11T04:37:57;25.30;;;19.52;;
56657;SDS011;42530;52.240;19.354;2022-11-11T04:40:42;22.20;;;19.98;;
56657;SDS011;42530;52.240;19.354;2022-11-11T04:43:27;22.15;;;19.33;;
56657;SDS011;42530;52.240;19.354;2022-11-11T04:45:56;30.48;;;22.02;;
56657;SDS011;42530;52.240;19.354;2022-11-11T04:48:22;21.60;;;19.33;;
56657;SDS011;42530;52.240;19.354;2022-11-11T04:50:48;23.23;;;20.00;;
56657;SDS011;42530;52.240;19.354;2022-11-11T04:53:14;25.85;;;19.63;;
56657;SDS011;42530;52.240;19.354;2022-11-11T04:55:40;26.25;;;20.85;;
56657;SDS011;42530;52.240;19.354;2022-11-11T04:58:29;24.95;;;18.85;;
56657;SDS011;42530;52.240;19.354;2022-11-11T05:00:57;25.50;;;20.70;;
56657;SDS011;42530;52.240;19.354;2022-11-11T05:03:23;26.85;;;20.33;;
56657;SDS011;42530;52.240;19.354;2022-11-11T05:05:49;24.55;;;20.02;;
56657;SDS011;42530;52.240;19.354;2022-11-11T05:08:35;20.95;;;17.20;;
56657;SDS011;42530;52.240;19.354;2022-11-11T05:13:50;20.27;;;18.27;;
56657;SDS011;42530;52.240;19.354;2022-11-11T05:16:39;21.23;;;18.15;;
56657;SDS011;42530;52.240;19.354;2022-11-11T05:19:26;24.30;;;18.63;;
56657;SDS011;42530;52.240;19.354;2022-11-11T05:24:45;26.00;;;19.35;;
56657;SDS011;42530;52.240;19.354;2022-11-11T05:27:30;21.20;;;18.10;;
56657;SDS011;42530;52.240;19.354;2022-11-11T05:29:55;24.80;;;19.00;;
56657;SDS011;42530;52.240;19.354;2022-11-11T05:32:21;19.23;;;17.17;;
56657;SDS011;42530;52.240;19.354;2022-11-11T05:34:47;22.60;;;20.23;;
56657;SDS011;42530;52.240;19.354;2022-11-11T05:37:14;18.63;;;16.67;;
56657;SDS011;42530;52.240;19.354;2022-11-11T05:39:40;19.90;;;16.73;;
56657;SDS011;42530;52.240;19.354;2022-11-11T05:42:05;21.02;;;18.77;;
56657;SDS011;42530;52.240;19.354;2022-11-11T05:44:31;23.58;;;18.58;;
56657;SDS011;42530;52.240;19.354;2022-11-11T05:46:56;19.38;;;17.48;;
56657;SDS011;42530;52.240;19.354;2022-11-11T05:49:22;21.40;;;18.33;;
56657;SDS011;42530;52.240;19.354;2022-11-11T05:51:49;21.00;;;18.20;;
56657;SDS011;42530;52.240;19.354;2022-11-11T05:54:15;22.73;;;17.48;;
56657;SDS011;42530;52.240;19.354;2022-11-11T05:56:41;22.77;;;17.58;;
56657;SDS011;42530;52.240;19.354;2022-11-11T05:59:07;19.52;;;17.55;;
56657;SDS011;42530;52.240;19.354;2022-11-11T06:01:33;22.42;;;17.35;;
56657;SDS011;42530;52.240;19.354;2022-11-11T06:03:59;26.42;;;19.20;;
56657;SDS011;42530;52.240;19.354;2022-11-11T06:06:24;16.52;;;14.70;;
56657;SDS011;42530;52.240;19.354;2022-11-11T06:08:50;21.60;;;16.33;;
56657;SDS011;42530;52.240;19.354;2022-11-11T06:11:16;20.90;;;15.32;;
56657;SDS011;42530;52.240;19.354;2022-11-11T06:13:41;19.90;;;15.60;;
56657;SDS011;42530;52.240;19.354;2022-11-11T06:16:06;18.88;;;16.80;;
56657;SDS011;42530;52.240;19.354;2022-11-11T06:18:32;19.42;;;17.35;;
56657;SDS011;42530;52.240;19.354;2022-11-11T06:20:58;23.45;;;16.35;;
56657;SDS011;42530;52.240;19.354;2022-11-11T06:23:24;21.10;;;17.88;;
56657;SDS011;42530;52.240;19.354;2022-11-11T06:25:51;20.50;;;17.40;;
56657;SDS011;42530;52.240;19.354;2022-11-11T06:28:36;20.77;;;16.80;;
56657;SDS011;42530;52.240;19.354;2022-11-11T06:31:03;20.35;;;18.00;;
56657;SDS011;42530;52.240;19.354;2022-11-11T06:33:31;19.85;;;17.27;;
56657;SDS011;42530;52.240;19.354;2022-11-11T06:36:00;21.20;;;17.23;;
56657;SDS011;42530;52.240;19.354;2022-11-11T06:38:26;20.55;;;18.33;;
56657;SDS011;42530;52.240;19.354;2022-11-11T06:40:52;20.75;;;17.05;;
56657;SDS011;42530;52.240;19.354;2022-11-11T06:43:18;18.92;;;16.73;;
56657;SDS011;42530;52.240;19.354;2022-11-11T06:45:44;18.58;;;16.75;;
56657;SDS011;42530;52.240;19.354;2022-11-11T06:48:10;20.75;;;16.13;;
56657;SDS011;42530;52.240;19.354;2022-11-11T06:50:36;17.75;;;16.10;;
56657;SDS011;42530;52.240;19.354;2022-11-11T06:53:09;19.80;;;17.80;;
56657;SDS011;42530;52.240;19.354;2022-11-11T06:55:35;22.92;;;19.27;;
56657;SDS011;42530;52.240;19.354;2022-11-11T06:58:04;17.33;;;15.75;;
56657;SDS011;42530;52.240;19.354;2022-11-11T07:00:40;24.85;;;15.77;;
56657;SDS011;42530;52.240;19.354;2022-11-11T07:03:06;17.73;;;15.90;;
56657;SDS011;42530;52.240;19.354;2022-11-11T07:05:35;17.23;;;15.43;;
56657;SDS011;42530;52.240;19.354;2022-11-11T07:08:01;22.90;;;15.35;;
56657;SDS011;42530;52.240;19.354;2022-11-11T07:10:28;25.63;;;16.20;;
56657;SDS011;42530;52.240;19.354;2022-11-11T07:12:54;26.17;;;16.60;;
56657;SDS011;42530;52.240;19.354;2022-11-11T07:15:20;20.63;;;16.05;;
56657;SDS011;42530;52.240;19.354;2022-11-11T07:17:46;18.80;;;15.43;;
56657;SDS011;42530;52.240;19.354;2022-11-11T07:20:11;17.35;;;15.52;;
56657;SDS011;42530;52.240;19.354;2022-11-11T07:22:36;24.13;;;14.75;;
56657;SDS011;42530;52.240;19.354;2022-11-11T07:25:02;20.05;;;16.83;;
56657;SDS011;42530;52.240;19.354;2022-11-11T07:27:28;17.60;;;15.77;;
56657;SDS011;42530;52.240;19.354;2022-11-11T07:29:54;16.27;;;14.75;;
56657;SDS011;42530;52.240;19.354;2022-11-11T07:32:19;15.90;;;14.30;;
56657;SDS011;42530;52.240;19.354;2022-11-11T07:34:45;21.25;;;14.20;;
56657;SDS011;42530;52.240;19.354;2022-11-11T07:37:10;18.67;;;14.95;;
56657;SDS011;42530;52.240;19.354;2022-11-11T07:39:36;23.35;;;16.20;;
56657;SDS011;42530;52.240;19.354;2022-11-11T07:42:01;16.75;;;11.45;;
56657;SDS011;42530;52.240;19.354;2022-11-11T07:44:27;13.90;;;10.30;;
56657;SDS011;42530;52.240;19.354;2022-11-11T07:46:52;18.73;;;13.68;;
56657;SDS011;42530;52.240;19.354;2022-11-11T07:49:18;18.02;;;13.02;;
56657;SDS011;42530;52.240;19.354;2022-11-11T07:51:44;12.63;;;11.32;;
56657;SDS011;42530;52.240;19.354;2022-11-11T07:54:09;14.55;;;13.10;;
56657;SDS011;42530;52.240;19.354;2022-11-11T07:56:35;14.73;;;12.32;;
56657;SDS011;42530;52.240;19.354;2022-11-11T07:59:00;13.55;;;11.90;;
56657;SDS011;42530;52.240;19.354;2022-11-11T08:01:26;17.25;;;12.25;;
56657;SDS011;42530;52.240;19.354;2022-11-11T08:03:52;13.35;;;10.80;;
56657;SDS011;42530;52.240;19.354;2022-11-11T08:06:18;14.15;;;12.75;;
56657;SDS011;42530;52.240;19.354;2022-11-11T08:08:44;16.67;;;12.20;;
56657;SDS011;42530;52.240;19.354;2022-11-11T08:11:10;15.55;;;13.32;;
56657;SDS011;42530;52.240;19.354;2022-11-11T08:13:36;17.15;;;13.07;;
56657;SDS011;42530;52.240;19.354;2022-11-11T08:16:05;21.13;;;12.13;;
56657;SDS011;42530;52.240;19.354;2022-11-11T08:18:35;15.70;;;13.07;;
56657;SDS011;42530;52.240;19.354;2022-11-11T08:21:01;17.55;;;15.23;;
56657;SDS011;42530;52.240;19.354;2022-11-11T08:23:28;17.17;;;13.80;;
56657;SDS011;42530;52.240;19.354;2022-11-11T08:26:00;16.60;;;13.63;;
56657;SDS011;42530;52.240;19.354;2022-11-11T08:28:28;18.38;;;13.57;;
56657;SDS011;42530;52.240;19.354;2022-11-11T08:30:57;16.10;;;13.65;;
56657;SDS011;42530;52.240;19.354;2022-11-11T08:33:23;17.02;;;12.10;;
56657;SDS011;42530;52.240;19.354;2022-11-11T08:35:48;16.08;;;13.80;;
56657;SDS011;42530;52.240;19.354;2022-11-11T08:38:14;22.08;;;15.10;;
56657;SDS011;42530;52.240;19.354;2022-11-11T08:40:41;11.27;;;10.02;;
56657;SDS011;42530;52.240;19.354;2022-11-11T08:43:06;16.67;;;12.90;;
56657;SDS011;42530;52.240;19.354;2022-11-11T08:45:32;21.55;;;14.35;;
56657;SDS011;42530;52.240;19.354;2022-11-11T08:47:58;18.98;;;16.20;;
56657;SDS011;42530;52.240;19.354;2022-11-11T08:50:23;20.70;;;16.58;;
56657;SDS011;42530;52.240;19.354;2022-11-11T08:52:49;12.90;;;11.55;;
56657;SDS011;42530;52.240;19.354;2022-11-11T08:55:16;13.27;;;11.38;;
56657;SDS011;42530;52.240;19.354;2022-11-11T08:57:42;16.40;;;13.55;;
56657;SDS011;42530;52.240;19.354;2022-11-11T09:00:08;14.05;;;11.75;;
56657;SDS011;42530;52.240;19.354;2022-11-11T09:02:35;15.75;;;14.05;;
56657;SDS011;42530;52.240;19.354;2022-11-11T09:05:00;19.48;;;13.63;;
56657;SDS011;42530;52.240;19.354;2022-11-11T09:07:26;19.23;;;13.73;;
56657;SDS011;42530;52.240;19.354;2022-11-11T09:09:52;15.27;;;13.32;;
56657;SDS011;42530;52.240;19.354;2022-11-11T09:12:18;17.38;;;12.25;;
56657;SDS011;42530;52.240;19.354;2022-11-11T09:14:44;13.52;;;12.02;;
56657;SDS011;42530;52.240;19.354;2022-11-11T09:17:09;16.48;;;11.43;;
56657;SDS011;42530;52.240;19.354;2022-11-11T09:19:35;15.63;;;11.90;;
56657;SDS011;42530;52.240;19.354;2022-11-11T09:22:01;16.00;;;12.38;;
56657;SDS011;42530;52.240;19.354;2022-11-11T09:24:26;18.63;;;14.80;;
56657;SDS011;42530;52.240;19.354;2022-11-11T09:26:52;16.13;;;14.52;;
56657;SDS011;42530;52.240;19.354;2022-11-11T09:29:17;20.33;;;14.32;;
56657;SDS011;42530;52.240;19.354;2022-11-11T09:31:44;14.90;;;11.55;;
56657;SDS011;42530;52.240;19.354;2022-11-11T09:34:09;12.70;;;11.50;;
56657;SDS011;42530;52.240;19.354;2022-11-11T09:36:35;18.15;;;11.82;;
56657;SDS011;42530;52.240;19.354;2022-11-11T09:39:01;15.05;;;11.50;;
56657;SDS011;42530;52.240;19.354;2022-11-11T09:44:04;14.80;;;12.88;;
56657;SDS011;42530;52.240;19.354;2022-11-11T09:46:45;16.05;;;13.68;;
56657;SDS011;42530;52.240;19.354;2022-11-11T09:52:21;15.93;;;14.38;;
56657;SDS011;42530;52.240;19.354;2022-11-11T09:57:31;17.50;;;12.73;;
56657;SDS011;42530;52.240;19.354;2022-11-11T10:00:02;15.15;;;11.23;;
56657;SDS011;42530;52.240;19.354;2022-11-11T10:02:39;15.30;;;13.07;;
56657;SDS011;42530;52.240;19.354;2022-11-11T10:05:14;17.08;;;11.70;;
56657;SDS011;42530;52.240;19.354;2022-11-11T10:10:37;14.80;;;11.85;;
56657;SDS011;42530;52.240;19.354;2022-11-11T10:13:14;24.17;;;13.95;;
56657;SDS011;42530;52.240;19.354;2022-11-11T10:18:41;14.40;;;12.38;;
56657;SDS011;42530;52.240;19.354;2022-11-11T10:21:51;13.25;;;11.95;;
56657;SDS011;42530;52.240;19.354;2022-11-11T10:24:25;14.43;;;13.00;;
56657;SDS011;42530;52.240;19.354;2022-11-11T10:26:52;14.10;;;12.57;;
56657;SDS011;42530;52.240;19.354;2022-11-11T10:29:18;20.63;;;15.15;;
56657;SDS011;42530;52.240;19.354;2022-11-11T10:31:49;15.68;;;12.45;;
56657;SDS011;42530;52.240;19.354;2022-11-11T10:34:25;16.63;;;12.57;;
56657;SDS011;42530;52.240;19.354;2022-11-11T10:36:56;14.25;;;12.82;;
56657;SDS011;42530;52.240;19.354;2022-11-11T10:42:12;11.75;;;10.60;;
56657;SDS011;42530;52.240;19.354;2022-11-11T10:44:41;13.18;;;11.20;;
56657;SDS011;42530;52.240;19.354;2022-11-11T10:49:52;13.90;;;11.20;;
56657;SDS011;42530;52.240;19.354;2022-11-11T10:52:19;19.05;;;14.35;;
56657;SDS011;42530;52.240;19.354;2022-11-11T10:54:53;12.40;;;10.23;;
56657;SDS011;42530;52.240;19.354;2022-11-11T11:00:18;12.65;;;11.48;;
56657;SDS011;42530;52.240;19.354;2022-11-11T11:05:21;16.55;;;12.13;;
56657;SDS011;42530;52.240;19.354;2022-11-11T11:07:53;15.48;;;12.88;;
56657;SDS011;42530;52.240;19.354;2022-11-11T11:10:24;12.00;;;10.75;;
56657;SDS011;42530;52.240;19.354;2022-11-11T11:15:27;14.05;;;12.70;;
56657;SDS011;42530;52.240;19.354;2022-11-11T11:18:29;14.48;;;12.80;;
56657;SDS011;42530;52.240;19.354;2022-11-11T11:20:59;15.70;;;10.70;;
56657;SDS011;42530;52.240;19.354;2022-11-11T11:23:38;19.33;;;12.15;;
56657;SDS011;42530;52.240;19.354;2022-11-11T11:26:04;17.42;;;11.38;;
56657;SDS011;42530;52.240;19.354;2022-11-11T11:28:33;17.35;;;12.52;;
56657;SDS011;42530;52.240;19.354;2022-11-11T11:33:26;15.27;;;13.70;;
56657;SDS011;42530;52.240;19.354;2022-11-11T11:35:51;23.70;;;15.85;;
56657;SDS011;42530;52.240;19.354;2022-11-11T11:38:16;16.02;;;14.23;;
56657;SDS011;42530;52.240;19.354;2022-11-11T11:40:43;13.23;;;11.90;;
56657;SDS011;42530;52.240;19.354;2022-11-11T11:43:35;12.35;;;10.00;;
56657;SDS011;42530;52.240;19.354;2022-11-11T11:46:18;20.10;;;13.57;;
56657;SDS011;42530;52.240;19.354;2022-11-11T12:00:22;21.45;;;16.70;;
56657;SDS011;42530;52.240;19.354;2022-11-11T12:05:39;12.38;;;11.15;;
56657;SDS011;42530;52.240;19.354;2022-11-11T12:14:17;20.20;;;14.10;;
56657;SDS011;42530;52.240;19.354;2022-11-11T12:16:59;21.83;;;16.50;;
56657;SDS011;42530;52.240;19.354;2022-11-11T12:22:35;11.70;;;10.65;;
56657;SDS011;42530;52.240;19.354;2022-11-11T12:42:10;14.20;;;11.82;;
56657;SDS011;42530;52.240;19.354;2022-11-11T12:50:47;15.18;;;13.65;;
56657;SDS011;42530;52.240;19.354;2022-11-11T12:56:03;17.25;;;13.80;;
56657;SDS011;42530;52.240;19.354;2022-11-11T13:03:48;13.38;;;11.77;;
56657;SDS011;42530;52.240;19.354;2022-11-11T13:06:24;14.93;;;13.18;;
56657;SDS011;42530;52.240;19.354;2022-11-11T13:12:00;21.33;;;13.68;;
56657;SDS011;42530;52.240;19.354;2022-11-11T13:17:13;19.45;;;17.50;;
56657;SDS011;42530;52.240;19.354;2022-11-11T13:19:43;12.10;;;11.15;;
56657;SDS011;42530;52.240;19.354;2022-11-11T13:22:18;16.33;;;12.95;;
56657;SDS011;42530;52.240;19.354;2022-11-11T13:24:50;13.43;;;12.05;;
56657;SDS011;42530;52.240;19.354;2022-11-11T13:27:24;13.02;;;11.65;;
56657;SDS011;42530;52.240;19.354;2022-11-11T13:32:30;17.45;;;13.00;;
56657;SDS011;42530;52.240;19.354;2022-11-11T13:35:08;19.58;;;13.65;;
56657;SDS011;42530;52.240;19.354;2022-11-11T13:37:42;13.05;;;11.65;;
56657;SDS011;42530;52.240;19.354;2022-11-11T13:40:21;15.07;;;12.13;;
56657;SDS011;42530;52.240;19.354;2022-11-11T13:42:49;18.95;;;13.57;;
56657;SDS011;42530;52.240;19.354;2022-11-11T13:45:32;11.77;;;10.57;;
56657;SDS011;42530;52.240;19.354;2022-11-11T13:47:58;18.00;;;11.20;;
56657;SDS011;42530;52.240;19.354;2022-11-11T13:50:37;17.38;;;13.23;;
56657;SDS011;42530;52.240;19.354;2022-11-11T13:53:05;14.20;;;11.43;;
56657;SDS011;42530;52.240;19.354;2022-11-11T13:55:40;14.93;;;10.60;;
56657;SDS011;42530;52.240;19.354;2022-11-11T13:58:24;13.77;;;9.73;;
56657;SDS011;42530;52.240;19.354;2022-11-11T14:01:04;13.32;;;11.93;;
56657;SDS011;42530;52.240;19.354;2022-11-11T14:03:32;14.98;;;13.45;;
56657;SDS011;42530;52.240;19.354;2022-11-11T14:11:25;21.02;;;15.85;;
56657;SDS011;42530;52.240;19.354;2022-11-11T14:13:51;17.83;;;16.05;;
56657;SDS011;42530;52.240;19.354;2022-11-11T14:26:57;30.63;;;27.33;;
56657;SDS011;42530;52.240;19.354;2022-11-11T14:29:32;29.77;;;21.07;;
56657;SDS011;42530;52.240;19.354;2022-11-11T14:32:07;16.42;;;14.70;;
56657;SDS011;42530;52.240;19.354;2022-11-11T14:40:34;21.38;;;15.45;;
56657;SDS011;42530;52.240;19.354;2022-11-11T14:42:59;22.23;;;17.83;;
56657;SDS011;42530;52.240;19.354;2022-11-11T14:46:01;21.30;;;16.20;;
56657;SDS011;42530;52.240;19.354;2022-11-11T14:57:22;17.35;;;15.35;;
56657;SDS011;42530;52.240;19.354;2022-11-11T14:59:50;21.95;;;18.55;;
56657;SDS011;42530;52.240;19.354;2022-11-11T15:02:53;21.63;;;19.48;;
56657;SDS011;42530;52.240;19.354;2022-11-11T15:05:19;27.08;;;21.70;;
56657;SDS011;42530;52.240;19.354;2022-11-11T15:07:58;21.73;;;18.17;;
56657;SDS011;42530;52.240;19.354;2022-11-11T15:13:09;28.45;;;25.73;;
56657;SDS011;42530;52.240;19.354;2022-11-11T15:18:55;28.20;;;25.13;;
56657;SDS011;42530;52.240;19.354;2022-11-11T15:21:57;25.33;;;18.63;;
56657;SDS011;42530;52.240;19.354;2022-11-11T15:32:32;21.55;;;17.90;;
56657;SDS011;42530;52.240;19.354;2022-11-11T15:38:08;24.73;;;19.93;;
56657;SDS011;42530;52.240;19.354;2022-11-11T15:40:43;25.48;;;22.58;;
56657;SDS011;42530;52.240;19.354;2022-11-11T15:43:18;31.92;;;25.38;;
56657;SDS011;42530;52.240;19.354;2022-11-11T15:45:50;35.28;;;28.73;;
56657;SDS011;42530;52.240;19.354;2022-11-11T15:48:25;36.30;;;31.50;;
56657;SDS011;42530;52.240;19.354;2022-11-11T15:50:54;40.30;;;33.35;;
56657;SDS011;42530;52.240;19.354;2022-11-11T15:53:24;49.33;;;38.50;;
56657;SDS011;42530;52.240;19.354;2022-11-11T15:55:53;50.50;;;39.15;;
56657;SDS011;42530;52.240;19.354;2022-11-11T15:58:25;45.53;;;37.15;;
56657;SDS011;42530;52.240;19.354;2022-11-11T16:00:51;46.80;;;39.38;;
56657;SDS011;42530;52.240;19.354;2022-11-11T16:05:51;34.60;;;28.05;;
56657;SDS011;42530;52.240;19.354;2022-11-11T16:08:17;31.38;;;25.90;;
56657;SDS011;42530;52.240;19.354;2022-11-11T16:10:51;20.08;;;17.35;;
56657;SDS011;42530;52.240;19.354;2022-11-11T16:13:42;24.02;;;20.52;;
56657;SDS011;42530;52.240;19.354;2022-11-11T16:16:23;18.27;;;15.18;;
56657;SDS011;42530;52.240;19.354;2022-11-11T16:18:56;22.67;;;16.92;;
56657;SDS011;42530;52.240;19.354;2022-11-11T16:21:27;23.58;;;21.17;;
56657;SDS011;42530;52.240;19.354;2022-11-11T16:23:59;26.15;;;22.90;;
56657;SDS011;42530;52.240;19.354;2022-11-11T16:26:26;28.10;;;20.92;;
56657;SDS011;42530;52.240;19.354;2022-11-11T16:28:56;23.52;;;21.02;;
56657;SDS011;42530;52.240;19.354;2022-11-11T16:34:21;23.00;;;17.42;;
56657;SDS011;42530;52.240;19.354;2022-11-11T16:37:06;21.08;;;17.55;;
56657;SDS011;42530;52.240;19.354;2022-11-11T16:39:33;24.13;;;17.98;;
56657;SDS011;42530;52.240;19.354;2022-11-11T16:41:59;22.83;;;18.00;;
56657;SDS011;42530;52.240;19.354;2022-11-11T16:44:37;25.92;;;22.67;;
56657;SDS011;42530;52.240;19.354;2022-11-11T16:47:08;33.03;;;28.20;;
56657;SDS011;42530;52.240;19.354;2022-11-11T16:53:04;28.85;;;25.35;;
56657;SDS011;42530;52.240;19.354;2022-11-11T16:55:29;25.75;;;23.30;;
56657;SDS011;42530;52.240;19.354;2022-11-11T16:58:12;43.08;;;31.92;;
56657;SDS011;42530;52.240;19.354;2022-11-11T17:00:40;31.15;;;27.05;;
56657;SDS011;42530;52.240;19.354;2022-11-11T17:03:14;31.15;;;27.42;;
56657;SDS011;42530;52.240;19.354;2022-11-11T17:10:59;32.90;;;28.20;;
56657;SDS011;42530;52.240;19.354;2022-11-11T17:13:26;35.10;;;31.48;;
56657;SDS011;42530;52.240;19.354;2022-11-11T17:15:52;38.80;;;31.65;;